createdAt,value
2018-08-25T00:03:17.247Z,1.33
2018-08-25T00:08:14.688Z,1.73
2018-08-25T00:13:12.059Z,1.63
2018-08-25T00:18:10.426Z,1.90
2018-08-25T00:23:08.079Z,1.50
2018-08-25T00:28:05.439Z,1.80
2018-08-25T00:33:02.831Z,1.30
2018-08-25T00:38:01.869Z,2.03
2018-08-25T00:42:59.355Z,2.57
2018-08-25T00:47:56.719Z,1.67
2018-08-25T00:52:54.090Z,1.40
2018-08-25T00:57:51.480Z,1.60
2018-08-25T01:02:48.916Z,1.90
2018-08-25T01:07:46.327Z,1.50
2018-08-25T01:12:43.731Z,3.03
2018-08-25T01:17:41.107Z,2.03
2018-08-25T01:22:38.496Z,1.63
2018-08-25T01:27:35.887Z,2.47
2018-08-25T01:32:33.279Z,3.07
2018-08-25T01:37:30.659Z,1.93
2018-08-25T01:42:28.035Z,2.33
2018-08-25T01:47:25.730Z,2.60
2018-08-25T01:52:23.103Z,2.13
2018-08-25T01:57:20.478Z,3.40
2018-08-25T02:02:17.876Z,2.10
2018-08-25T02:07:15.291Z,2.20
2018-08-25T02:12:12.670Z,2.10
2018-08-25T02:17:10.065Z,2.07
2018-08-25T02:22:07.448Z,2.37
2018-08-25T02:27:04.854Z,2.23
2018-08-25T02:32:02.247Z,2.50
2018-08-25T02:36:59.655Z,2.50
2018-08-25T02:41:57.052Z,2.27
2018-08-25T02:46:54.487Z,2.13
2018-08-25T02:51:51.967Z,1.97
2018-08-25T02:56:49.356Z,1.63
2018-08-25T03:01:46.723Z,1.80
2018-08-25T03:06:44.115Z,1.87
2018-08-25T03:11:41.495Z,1.70
2018-08-25T03:16:38.887Z,1.70
2018-08-25T03:21:37.439Z,1.50
2018-08-25T03:26:34.872Z,1.60
2018-08-25T03:31:32.471Z,1.77
2018-08-25T03:36:29.899Z,1.60
2018-08-25T03:41:27.364Z,1.33
2018-08-25T03:46:24.746Z,2.00
2018-08-25T03:51:22.658Z,1.50
2018-08-25T03:56:20.284Z,2.10
2018-08-25T04:01:17.694Z,1.30
2018-08-25T04:06:15.111Z,1.60
2018-08-25T04:11:12.507Z,2.33
2018-08-25T04:16:09.887Z,2.30
2018-08-25T04:21:07.304Z,1.60
2018-08-25T04:26:04.991Z,1.60
2018-08-25T04:31:02.374Z,2.13
2018-08-25T04:35:59.776Z,1.70
2018-08-25T04:40:57.164Z,2.00
2018-08-25T04:45:54.558Z,1.40
2018-08-25T04:50:52.019Z,1.43
2018-08-25T04:55:51.095Z,1.47
2018-08-25T05:00:48.508Z,1.90
2018-08-25T05:05:46.044Z,1.57
2018-08-25T05:10:43.443Z,1.67
2018-08-25T05:15:40.839Z,2.27
2018-08-25T05:20:38.233Z,2.67
2018-08-25T05:25:35.632Z,1.90
2018-08-25T05:30:33.375Z,1.97
2018-08-25T05:35:30.917Z,2.53
2018-08-25T05:40:29.714Z,2.03
2018-08-25T05:45:27.108Z,2.53
2018-08-25T05:50:24.506Z,2.80
2018-08-25T05:55:22.776Z,3.53
2018-08-25T06:00:20.195Z,2.53
2018-08-25T06:05:17.725Z,2.80
2018-08-25T06:10:15.120Z,3.80
2018-08-25T06:15:12.525Z,6.80
2018-08-25T06:20:10.988Z,4.30
2018-08-25T06:25:08.975Z,4.00
2018-08-25T06:30:06.525Z,2.73
2018-08-25T06:35:03.928Z,2.70
2018-08-25T06:40:01.383Z,2.80
2018-08-25T06:44:58.794Z,2.20
2018-08-25T06:49:57.262Z,2.10
2018-08-25T06:54:54.643Z,3.03
2018-08-25T06:59:52.949Z,3.17
2018-08-25T07:04:50.383Z,2.40
2018-08-25T07:09:47.768Z,2.80
2018-08-25T07:14:45.156Z,2.37
2018-08-25T07:19:43.577Z,3.53
2018-08-25T07:24:41.776Z,3.50
2018-08-25T07:29:40.783Z,3.77
2018-08-25T07:34:38.148Z,3.97
2018-08-25T07:39:35.541Z,4.77
2018-08-25T07:44:33.059Z,3.27
2018-08-25T07:49:34.222Z,5.77
2018-08-25T07:54:32.588Z,6.43
2018-08-25T07:59:30.017Z,6.33
2018-08-25T08:04:27.459Z,5.50
2018-08-25T08:09:24.859Z,4.83
2018-08-25T08:14:22.239Z,3.50
2018-08-25T08:19:24.337Z,3.87
2018-08-25T08:24:21.769Z,3.40
2018-08-25T08:29:19.236Z,4.43
2018-08-25T08:34:16.609Z,3.40
2018-08-25T08:39:14.020Z,4.03
2018-08-25T08:44:11.640Z,3.27
2018-08-25T08:49:10.352Z,3.33
2018-08-25T08:54:07.752Z,3.47
2018-08-25T08:59:05.159Z,4.50
2018-08-25T09:04:03.436Z,4.17
2018-08-25T09:09:00.869Z,3.17
2018-08-25T09:13:58.255Z,4.97
2018-08-25T09:18:55.683Z,4.53
2018-08-25T09:23:53.111Z,5.40
2018-08-25T09:28:51.387Z,6.20
2018-08-25T09:33:49.118Z,5.20
2018-08-25T09:38:46.615Z,2.20
2018-08-25T09:43:44.179Z,1.67
2018-08-25T09:48:41.604Z,3.13
2018-08-25T09:53:39.973Z,3.30
2018-08-25T09:58:37.313Z,4.30
2018-08-25T10:03:35.379Z,4.93
2018-08-25T10:08:32.790Z,4.40
2018-08-25T10:13:30.256Z,1.93
2018-08-25T10:18:27.652Z,2.30
2018-08-25T10:23:25.043Z,2.43
2018-08-25T10:28:22.775Z,2.80
2018-08-25T10:33:20.143Z,2.90
2018-08-25T10:38:17.522Z,4.20
2018-08-25T10:43:14.909Z,3.10
2018-08-25T10:48:12.335Z,2.60
2018-08-25T10:53:09.687Z,3.13
2018-08-25T10:58:07.615Z,2.13
2018-08-25T11:03:05.192Z,3.10
2018-08-25T11:08:02.680Z,2.57
2018-08-25T11:13:00.080Z,3.50
2018-08-25T11:17:57.657Z,2.30
2018-08-25T11:22:55.039Z,2.83
2018-08-25T11:27:52.468Z,2.60
2018-08-25T11:32:49.923Z,2.00
2018-08-25T11:37:47.949Z,1.70
2018-08-25T11:42:45.265Z,1.90
2018-08-25T11:47:42.658Z,1.80
2018-08-25T11:52:40.044Z,1.57
2018-08-25T11:57:37.450Z,2.03
2018-08-25T12:02:34.950Z,1.70
2018-08-25T12:07:32.388Z,1.10
2018-08-25T12:12:29.786Z,1.30
2018-08-25T12:17:27.361Z,1.10
2018-08-25T12:22:24.774Z,0.93
2018-08-25T12:27:22.232Z,0.70
2018-08-25T12:32:19.631Z,0.50
2018-08-25T12:37:20.569Z,0.60
2018-08-25T12:42:18.027Z,0.80
2018-08-25T12:47:15.478Z,1.23
2018-08-25T12:52:12.872Z,1.00
2018-08-25T12:57:10.275Z,0.77
2018-08-25T13:02:07.695Z,0.70
2018-08-25T13:07:05.216Z,0.70
2018-08-25T13:12:02.627Z,0.57
2018-08-25T13:17:00.024Z,0.77
2018-08-25T13:21:57.446Z,0.80
2018-08-25T13:26:54.826Z,0.80
2018-08-25T13:31:52.227Z,0.53
2018-08-25T13:36:49.619Z,1.37
2018-08-25T13:41:47.099Z,0.50
2018-08-25T13:46:44.494Z,0.67
2018-08-25T13:51:41.918Z,0.93
2018-08-25T13:56:39.307Z,1.17
2018-08-25T14:01:36.872Z,0.60
2018-08-25T14:06:34.283Z,1.03
2018-08-25T14:11:31.683Z,1.70
2018-08-25T14:16:29.133Z,1.00
2018-08-25T14:21:26.500Z,0.80
2018-08-25T14:26:23.909Z,2.27
2018-08-25T14:31:21.305Z,2.60
2018-08-25T14:36:18.839Z,2.30
2018-08-25T14:41:16.240Z,2.00
2018-08-25T14:46:14.579Z,2.10
2018-08-25T14:51:11.963Z,3.73
2018-08-25T14:56:09.384Z,2.60
2018-08-25T15:01:06.794Z,1.43
2018-08-25T15:06:04.183Z,1.07
2018-08-25T15:11:01.559Z,0.80
2018-08-25T15:15:58.980Z,0.93
2018-08-25T15:20:57.379Z,1.10
2018-08-25T15:25:54.796Z,0.80
2018-08-25T15:30:52.231Z,0.90
2018-08-25T15:35:49.621Z,1.20
2018-08-25T15:40:47.007Z,1.10
2018-08-25T15:45:44.583Z,1.20
2018-08-25T15:50:42.381Z,1.40
2018-08-25T15:55:39.851Z,1.10
2018-08-25T16:00:44.132Z,1.00
2018-08-25T16:05:48.291Z,2.67
2018-08-25T16:10:48.041Z,1.67
2018-08-25T16:15:46.172Z,2.00
2018-08-25T16:20:48.268Z,1.70
2018-08-25T16:25:46.343Z,1.83
2018-08-25T16:30:43.767Z,2.30
2018-08-25T16:35:42.895Z,1.77
2018-08-25T16:40:41.152Z,2.30
2018-08-25T16:45:38.543Z,2.10
2018-08-25T16:50:35.924Z,2.20
2018-08-25T16:55:33.327Z,2.30
2018-08-25T17:00:30.703Z,2.63
2018-08-25T17:05:28.124Z,2.70
2018-08-25T17:10:28.898Z,2.10
2018-08-25T17:15:26.816Z,2.40
2018-08-25T17:20:24.280Z,2.20
2018-08-25T17:25:21.720Z,2.57
2018-08-25T17:30:19.115Z,2.70
2018-08-25T17:35:18.163Z,2.30
2018-08-25T17:40:15.818Z,2.83
2018-08-25T17:45:13.360Z,2.23
2018-08-25T17:50:11.094Z,2.67
2018-08-25T17:55:08.559Z,2.93
2018-08-25T18:00:06.213Z,3.17
2018-08-25T18:05:04.172Z,2.67
2018-08-25T18:10:01.575Z,3.30
2018-08-25T18:14:58.979Z,2.00
2018-08-25T18:19:57.467Z,1.67
2018-08-25T18:24:54.951Z,1.33
2018-08-25T18:29:52.539Z,1.60
2018-08-25T18:34:49.945Z,1.67
2018-08-25T18:39:47.344Z,1.10
2018-08-25T18:44:45.099Z,0.80
2018-08-25T18:49:43.912Z,1.40
2018-08-25T18:54:41.367Z,1.27
2018-08-25T18:59:38.998Z,1.00
2018-08-25T19:04:36.396Z,1.57
2018-08-25T19:09:34.216Z,1.20
2018-08-25T19:14:32.655Z,1.50
2018-08-25T19:19:33.286Z,1.10
2018-08-25T19:24:30.820Z,1.37
2018-08-25T19:29:28.191Z,1.30
2018-08-25T19:34:25.590Z,1.40
2018-08-25T19:39:22.955Z,1.67
2018-08-25T19:44:20.923Z,0.70
2018-08-25T19:49:25.693Z,1.03
2018-08-25T19:54:23.145Z,1.30
2018-08-25T19:59:22.139Z,1.17
2018-08-25T20:04:19.519Z,1.00
2018-08-25T20:09:16.921Z,0.60
2018-08-25T20:14:14.291Z,0.73
2018-08-25T20:19:11.721Z,0.90
2018-08-25T20:24:09.099Z,1.20
2018-08-25T20:29:07.524Z,1.03
2018-08-25T20:34:05.483Z,1.17
2018-08-25T20:39:03.491Z,1.47
2018-08-25T20:44:00.911Z,0.93
2018-08-25T20:48:58.996Z,0.97
2018-08-25T20:53:56.488Z,1.00
2018-08-25T20:58:54.796Z,1.30
2018-08-25T21:03:52.167Z,1.13
2018-08-25T21:08:49.692Z,1.30
2018-08-25T21:13:47.634Z,1.10
2018-08-25T21:18:44.995Z,1.07
2018-08-25T21:23:43.223Z,1.20
2018-08-25T21:28:40.579Z,1.27
2018-08-25T21:33:38.883Z,1.20
2018-08-25T21:38:36.891Z,1.20
2018-08-25T21:43:34.501Z,1.10
2018-08-25T21:48:31.871Z,2.17
2018-08-25T21:53:29.235Z,0.97
2018-08-25T21:58:26.661Z,1.03
2018-08-25T22:03:24.999Z,1.50
2018-08-25T22:08:24.211Z,1.80
2018-08-25T22:13:21.803Z,1.57
2018-08-25T22:18:19.978Z,2.20
2018-08-25T22:23:17.373Z,2.40
2018-08-25T22:28:14.743Z,2.80
2018-08-25T22:33:12.199Z,2.23
2018-08-25T22:38:09.571Z,1.83
2018-08-25T22:43:06.963Z,1.70
2018-08-25T22:48:04.379Z,1.40
2018-08-25T22:53:01.762Z,2.07
2018-08-25T22:57:59.157Z,2.13
2018-08-25T23:02:56.529Z,1.90
2018-08-25T23:07:53.923Z,1.53
2018-08-25T23:12:51.675Z,1.90
2018-08-25T23:17:50.110Z,1.67
2018-08-25T23:22:47.483Z,1.40
2018-08-25T23:27:44.916Z,2.00
2018-08-25T23:32:42.317Z,1.70
2018-08-25T23:37:40.244Z,1.60
2018-08-25T23:42:37.615Z,1.97
2018-08-25T23:47:35.171Z,1.77
2018-08-25T23:52:35.508Z,2.03
2018-08-25T23:57:33.843Z,1.90
